Time;durP1;ratioP1;P1;durP2;ratioP2;P2;SDS_P1;SDS_P2;PMS_P1;PMS_P2;Temp;Humidity;BMP_temperature;BMP_pressure;BME280_temperature;BME280_humidity;BME280_pressure;Samples;Min_cycle;Max_cycle;Signal;HPM_P1;HPM_P2
2022/12/29 00:00:51;;;;;;;19.33;10.00;;;;;3.20;96042.00;;;;8331382;28;20246;-83
2022/12/29 00:04:59;;;;;;;18.33;9.10;;;;;3.30;96036.00;;;;8337397;28;20627;-81
2022/12/29 00:09:02;;;;;;;21.10;8.83;;;;;3.30;96040.00;;;;8335966;28;20188;-81
2022/12/29 00:18:01;;;;;;;16.60;9.07;;;;;3.40;96042.00;;;;8336392;28;20203;-81
2022/12/29 00:35:32;;;;;;;21.40;9.80;;;;;3.50;96009.00;;;;8334940;28;20207;-81
2022/12/29 00:44:07;;;;;;;14.23;8.10;;;;;3.60;96027.00;;;;8335478;28;20233;-81
2022/12/29 00:53:02;;;;;;;16.50;8.70;;;;;3.50;96008.00;;;;8311449;28;20198;-81
2022/12/29 00:57:12;;;;;;;14.37;8.67;;;;;3.50;96007.00;;;;8335046;28;20516;-79
2022/12/29 01:01:17;;;;;;;20.40;8.20;;;;;3.50;96001.00;;;;8335234;28;20197;-80
2022/12/29 01:05:20;;;;;;;15.33;8.77;;;;;3.50;96007.00;;;;8334067;28;20221;-80
2022/12/29 01:13:58;;;;;;;13.53;8.13;;;;;3.60;96005.00;;;;8334435;28;20652;-80
2022/12/29 01:18:01;;;;;;;13.60;8.30;;;;;3.60;96009.00;;;;8335610;28;20586;-80
2022/12/29 01:22:04;;;;;;;13.23;8.27;;;;;3.60;96017.00;;;;8334125;28;20371;-80
2022/12/29 01:26:42;;;;;;;17.83;8.13;;;;;3.60;96007.00;;;;8334925;28;20279;-80
2022/12/29 01:30:45;;;;;;;17.83;8.90;;;;;3.60;95999.00;;;;8333207;28;20248;-80
2022/12/29 01:34:51;;;;;;;15.20;9.20;;;;;3.60;95997.00;;;;8333872;28;20255;-80
2022/12/29 01:39:25;;;;;;;15.23;8.13;;;;;3.50;95997.00;;;;8333519;28;20721;-80
2022/12/29 01:43:44;;;;;;;15.80;8.63;;;;;3.50;95986.00;;;;8329546;28;20704;-80
2022/12/29 01:47:51;;;;;;;17.10;8.60;;;;;3.50;95988.00;;;;8333822;28;20202;-80
2022/12/29 01:51:58;;;;;;;15.57;8.77;;;;;3.50;95988.00;;;;8332154;28;20275;-80
2022/12/29 01:56:08;;;;;;;12.87;8.23;;;;;3.50;95979.00;;;;8332983;28;20251;-80
2022/12/29 02:00:40;;;;;;;15.23;8.53;;;;;3.50;95984.00;;;;8333070;28;20251;-80
2022/12/29 02:04:44;;;;;;;15.60;8.97;;;;;3.50;95981.00;;;;8332340;28;20267;-80
2022/12/29 02:08:50;;;;;;;12.10;8.03;;;;;3.60;95973.00;;;;8333950;28;20235;-79
2022/12/29 02:12:54;;;;;;;15.83;8.70;;;;;3.50;95954.00;;;;8333006;28;20239;-79
2022/12/29 02:17:11;;;;;;;15.93;9.10;;;;;3.50;95959.00;;;;8332504;28;20303;-78
2022/12/29 02:21:40;;;;;;;14.80;7.67;;;;;3.40;95953.00;;;;8332766;28;20208;-80
2022/12/29 02:25:59;;;;;;;15.80;7.70;;;;;3.40;95947.00;;;;8331232;28;20197;-79
2022/12/29 02:30:39;;;;;;;13.03;8.13;;;;;3.40;95958.00;;;;8333190;28;20695;-80
2022/12/29 02:34:49;;;;;;;12.57;7.97;;;;;3.40;95964.00;;;;8168007;29;20203;-80
2022/12/29 02:39:02;;;;;;;14.27;7.73;;;;;3.40;95965.00;;;;8250315;28;20355;-79
2022/12/29 02:43:20;;;;;;;14.00;8.07;;;;;3.50;95935.00;;;;8332049;28;20235;-80
2022/12/29 02:47:52;;;;;;;12.40;7.57;;;;;3.50;95935.00;;;;8313978;28;20204;-80
2022/12/29 02:52:03;;;;;;;16.73;9.03;;;;;3.50;95931.00;;;;8331140;28;20220;-79
2022/12/29 02:56:06;;;;;;;14.60;8.07;;;;;3.60;95924.00;;;;8331766;28;20250;-78
2022/12/29 03:00:16;;;;;;;13.53;8.23;;;;;3.60;95937.00;;;;8331823;28;20605;-77
2022/12/29 03:04:36;;;;;;;11.87;8.10;;;;;3.70;95952.00;;;;8357320;22;20235;-78
2022/12/29 03:08:50;;;;;;;14.33;7.30;;;;;3.80;95934.00;;;;8348757;28;20869;-79
2022/12/29 03:17:35;;;;;;;12.23;7.43;;;;;3.90;95934.00;;;;8346256;28;20199;-78
2022/12/29 03:26:09;;;;;;;13.23;7.40;;;;;3.90;95924.00;;;;8342644;28;20531;-78
2022/12/29 03:30:13;;;;;;;11.87;7.67;;;;;4.00;95922.00;;;;8342894;28;20204;-78
2022/12/29 03:34:22;;;;;;;10.30;7.10;;;;;4.00;95909.00;;;;8351426;28;20241;-78
2022/12/29 03:38:34;;;;;;;11.27;6.93;;;;;3.90;95911.00;;;;8353415;28;20201;-78
2022/12/29 03:42:39;;;;;;;13.37;6.30;;;;;4.00;95914.00;;;;8340909;28;20217;-77
2022/12/29 03:46:46;;;;;;;10.50;6.73;;;;;4.00;95907.00;;;;8348218;28;20258;-78
2022/12/29 03:50:52;;;;;;;8.47;6.53;;;;;4.00;95911.00;;;;8353015;28;20206;-77
2022/12/29 03:55:02;;;;;;;9.27;6.03;;;;;4.00;95906.00;;;;8351751;28;20725;-77
2022/12/29 03:59:05;;;;;;;13.97;6.47;;;;;4.10;95903.00;;;;8343261;28;20201;-77
2022/12/29 04:03:10;;;;;;;9.67;6.33;;;;;4.10;95902.00;;;;8353117;28;20241;-77
2022/12/29 04:07:13;;;;;;;9.33;6.70;;;;;4.20;95901.00;;;;8343232;28;20203;-77
2022/12/29 04:11:18;;;;;;;7.53;6.07;;;;;4.20;95905.00;;;;8351406;28;20200;-77
2022/12/29 04:15:26;;;;;;;8.60;5.63;;;;;4.30;95904.00;;;;8349676;28;21289;-77
2022/12/29 04:19:29;;;;;;;9.17;5.97;;;;;4.30;95913.00;;;;8343858;28;20258;-77
2022/12/29 04:23:34;;;;;;;8.10;5.67;;;;;4.30;95907.00;;;;8351698;28;20232;-77
2022/12/29 04:27:42;;;;;;;11.33;6.23;;;;;4.30;95908.00;;;;8347184;28;20247;-78
2022/12/29 04:31:47;;;;;;;10.43;5.97;;;;;4.30;95911.00;;;;8348637;28;20832;-77
2022/12/29 04:35:52;;;;;;;9.50;6.00;;;;;4.30;95909.00;;;;8347273;28;20582;-77
2022/12/29 04:39:55;;;;;;;9.63;5.60;;;;;4.30;95912.00;;;;8347995;28;20201;-77
2022/12/29 04:44:02;;;;;;;12.27;5.80;;;;;4.20;95916.00;;;;8351667;28;20291;-77
2022/12/29 04:48:06;;;;;;;11.13;7.37;;;;;4.30;95912.00;;;;8343238;28;20270;-77
2022/12/29 04:52:11;;;;;;;8.17;5.70;;;;;4.30;95918.00;;;;8338466;28;20195;-77
2022/12/29 04:56:15;;;;;;;10.97;6.10;;;;;4.30;95917.00;;;;8341506;28;20208;-77
2022/12/29 05:00:23;;;;;;;9.73;5.50;;;;;4.30;95918.00;;;;8348118;28;20254;-77
2022/12/29 05:04:28;;;;;;;10.93;6.03;;;;;4.30;95919.00;;;;8345285;28;20228;-76
2022/12/29 05:08:31;;;;;;;9.77;5.80;;;;;4.20;95916.00;;;;8343365;28;20206;-73
2022/12/29 05:12:38;;;;;;;8.83;6.27;;;;;4.10;95911.00;;;;8349273;28;20201;-74
2022/12/29 05:16:42;;;;;;;7.67;5.77;;;;;4.00;95917.00;;;;8349656;28;20427;-73
2022/12/29 05:20:46;;;;;;;11.73;6.73;;;;;4.00;95919.00;;;;8344662;28;20196;-74
2022/12/29 05:24:56;;;;;;;12.43;6.50;;;;;3.90;95915.00;;;;8347613;28;20351;-73
2022/12/29 05:29:01;;;;;;;12.10;6.27;;;;;3.90;95907.00;;;;8353757;28;20203;-73
2022/12/29 05:33:07;;;;;;;10.57;6.37;;;;;3.90;95907.00;;;;8339041;28;20274;-73
2022/12/29 05:37:14;;;;;;;9.43;6.77;;;;;3.90;95912.00;;;;8335366;28;20599;-73
2022/12/29 05:41:23;;;;;;;11.20;6.17;;;;;3.80;95912.00;;;;8329485;28;20668;-73
2022/12/29 05:45:26;;;;;;;10.37;6.00;;;;;3.80;95908.00;;;;8343440;28;20232;-73
2022/12/29 05:49:31;;;;;;;11.00;6.50;;;;;3.70;95916.00;;;;8348258;28;20258;-74
2022/12/29 05:53:40;;;;;;;9.67;6.30;;;;;3.70;95902.00;;;;8349590;28;20847;-74
2022/12/29 05:57:43;;;;;;;9.37;6.73;;;;;3.70;95905.00;;;;8339095;28;20201;-74
2022/12/29 06:01:48;;;;;;;10.30;6.17;;;;;3.80;95905.00;;;;8346487;28;20307;-74
2022/12/29 06:05:53;;;;;;;13.27;7.23;;;;;3.80;95910.00;;;;8348265;28;20220;-75
2022/12/29 06:09:59;;;;;;;11.53;7.63;;;;;3.90;95899.00;;;;8340798;28;20211;-75
2022/12/29 06:14:02;;;;;;;10.90;7.07;;;;;4.00;95912.00;;;;8349004;28;20193;-75
2022/12/29 06:18:05;;;;;;;15.73;6.73;;;;;4.00;95915.00;;;;8332551;28;20482;-75
2022/12/29 06:22:11;;;;;;;8.73;6.03;;;;;4.00;95910.00;;;;8344640;28;20223;-77
2022/12/29 06:26:15;;;;;;;8.70;6.30;;;;;4.00;95911.00;;;;8344401;28;20492;-77
2022/12/29 06:30:21;;;;;;;11.87;7.07;;;;;4.00;95907.00;;;;8341140;28;20240;-76
2022/12/29 06:34:24;;;;;;;8.23;5.67;;;;;4.00;95916.00;;;;8343167;28;20196;-76
2022/12/29 06:38:30;;;;;;;7.80;6.03;;;;;3.90;95917.00;;;;8342231;28;20243;-76
2022/12/29 06:42:34;;;;;;;9.80;5.70;;;;;3.90;95924.00;;;;8335124;28;20263;-77
2022/12/29 06:46:39;;;;;;;8.87;5.83;;;;;3.90;95925.00;;;;8344826;28;20235;-75
2022/12/29 06:50:42;;;;;;;12.17;6.90;;;;;3.80;95928.00;;;;8339336;28;20205;-76
2022/12/29 06:54:47;;;;;;;13.17;7.20;;;;;3.70;95927.00;;;;8344906;28;20516;-76
2022/12/29 06:58:55;;;;;;;12.67;7.40;;;;;3.60;95927.00;;;;8337223;28;20914;-76
2022/12/29 07:02:59;;;;;;;11.67;7.10;;;;;3.50;95927.00;;;;8348445;28;20231;-76
2022/12/29 07:07:02;;;;;;;10.53;6.77;;;;;3.40;95926.00;;;;8344619;28;20331;-76
2022/12/29 07:11:07;;;;;;;10.00;6.70;;;;;3.40;95922.00;;;;8344372;28;20210;-75
2022/12/29 07:15:11;;;;;;;14.10;7.40;;;;;3.30;95924.00;;;;8355024;28;20393;-75
2022/12/29 07:19:14;;;;;;;10.30;6.57;;;;;3.30;95920.00;;;;8354733;28;20217;-76
2022/12/29 07:23:20;;;;;;;11.60;6.73;;;;;3.30;95927.00;;;;8334439;28;20299;-75
2022/12/29 07:27:25;;;;;;;10.97;7.13;;;;;3.20;95917.00;;;;8339962;28;20266;-76
2022/12/29 07:31:29;;;;;;;12.27;6.60;;;;;3.20;95921.00;;;;8350067;28;20246;-76
2022/12/29 07:35:34;;;;;;;13.20;7.00;;;;;3.20;95905.00;;;;8334994;28;20204;-75
2022/12/29 07:39:39;;;;;;;11.33;6.70;;;;;3.20;95903.00;;;;8341058;28;20675;-76
2022/12/29 07:43:51;;;;;;;11.10;6.60;;;;;3.20;95907.00;;;;8339163;28;20235;-76
2022/12/29 07:47:54;;;;;;;12.10;6.70;;;;;3.30;95914.00;;;;8342832;28;20266;-76
2022/12/29 07:51:58;;;;;;;10.93;6.27;;;;;3.40;95917.00;;;;8340978;28;20726;-76
2022/12/29 07:56:01;;;;;;;10.03;6.30;;;;;3.40;95911.00;;;;8342043;28;20554;-77
2022/12/29 08:00:09;;;;;;;8.40;6.20;;;;;3.50;95914.00;;;;8340409;28;20195;-77
2022/12/29 08:04:12;;;;;;;12.77;6.97;;;;;3.60;95926.00;;;;8342094;28;20704;-76
2022/12/29 08:08:20;;;;;;;9.17;6.07;;;;;3.70;95928.00;;;;8336920;28;20290;-77
2022/12/29 08:18:14;;;;;;;10.40;6.10;;;;;3.90;95942.00;;;;8363780;28;20690;-76
2022/12/29 08:22:46;;;;;;;11.57;6.07;;;;;4.00;95944.00;;;;8366267;28;20196;-75
2022/12/29 08:27:20;;;;;;;7.20;5.73;;;;;4.10;95957.00;;;;8367059;28;20223;-77
2022/12/29 08:32:03;;;;;;;11.23;5.90;;;;;4.20;95960.00;;;;8369275;28;20268;-76
2022/12/29 08:36:34;;;;;;;11.47;6.40;;;;;4.40;95954.00;;;;8366521;28;20281;-76
2022/12/29 08:40:38;;;;;;;8.07;5.63;;;;;4.60;95958.00;;;;8368065;28;20193;-76
2022/12/29 08:44:42;;;;;;;7.87;5.60;;;;;4.70;95959.00;;;;8368408;28;20266;-76
2022/12/29 08:48:53;;;;;;;9.93;5.57;;;;;4.80;95959.00;;;;8367878;28;20239;-75
2022/12/29 08:53:23;;;;;;;10.13;5.70;;;;;4.90;95964.00;;;;8368136;28;20286;-76
2022/12/29 08:58:03;;;;;;;11.17;5.97;;;;;4.90;95966.00;;;;8368221;28;20276;-76
2022/12/29 09:02:36;;;;;;;9.03;5.70;;;;;5.00;95970.00;;;;8366789;28;20251;-76
2022/12/29 09:12:25;;;;;;;10.40;5.47;;;;;5.20;95973.00;;;;8367342;28;20287;-76
2022/12/29 09:16:39;;;;;;;8.73;5.23;;;;;5.30;95973.00;;;;8366739;28;20185;-76
2022/12/29 09:20:42;;;;;;;9.13;6.10;;;;;5.40;95971.00;;;;8367407;28;20200;-76
2022/12/29 09:25:19;;;;;;;6.30;4.90;;;;;5.50;95961.00;;;;8366521;28;20661;-76
2022/12/29 09:29:23;;;;;;;7.40;5.50;;;;;5.60;95959.00;;;;8366402;28;20282;-76
2022/12/29 09:33:32;;;;;;;7.87;4.87;;;;;5.70;95954.00;;;;8365004;28;20197;-76
2022/12/29 09:38:03;;;;;;;7.83;5.37;;;;;5.70;95955.00;;;;8367012;28;20232;-77
2022/12/29 09:42:12;;;;;;;11.23;5.43;;;;;5.90;95957.00;;;;8367039;28;20195;-76
2022/12/29 09:46:45;;;;;;;7.60;5.50;;;;;6.00;95961.00;;;;8363277;28;20306;-76
2022/12/29 09:51:22;;;;;;;8.37;5.63;;;;;6.10;95954.00;;;;8366079;28;20287;-77
2022/12/29 09:55:56;;;;;;;6.43;4.73;;;;;6.20;95945.00;;;;8365220;28;20247;-80
2022/12/29 10:00:04;;;;;;;8.50;5.27;;;;;6.30;95937.00;;;;8365793;28;20200;-80
2022/12/29 10:04:38;;;;;;;7.00;5.63;;;;;6.60;95931.00;;;;8364221;28;20919;-79
2022/12/29 10:14:21;;;;;;;8.33;4.73;;;;;7.50;95931.00;;;;8365462;28;20192;-81
2022/12/29 10:19:09;;;;;;;5.90;4.20;;;;;7.60;95939.00;;;;8364021;28;20197;-81
2022/12/29 10:23:37;;;;;;;8.98;5.35;;;;;7.90;95925.00;;;;8360903;28;20447;-79
2022/12/29 10:28:18;;;;;;;5.37;4.20;;;;;8.30;95912.00;;;;8364199;28;20290;-81
2022/12/29 10:32:33;;;;;;;6.90;3.67;;;;;8.50;95913.00;;;;8364026;28;20312;-81
2022/12/29 10:37:04;;;;;;;4.50;3.87;;;;;8.60;95909.00;;;;8364601;28;20243;-81
2022/12/29 10:41:39;;;;;;;4.97;3.78;;;;;8.60;95901.00;;;;8364521;28;20177;-84
2022/12/29 10:46:21;;;;;;;5.97;4.10;;;;;8.70;95902.00;;;;8363089;28;20251;-78
2022/12/29 10:50:57;;;;;;;6.50;3.77;;;;;8.90;95892.00;;;;8364296;28;20189;-78
2022/12/29 10:55:30;;;;;;;6.13;3.70;;;;;9.00;95892.00;;;;8363972;28;20629;-79
2022/12/29 10:59:38;;;;;;;5.72;3.60;;;;;9.10;95890.00;;;;8363887;28;20208;-78
2022/12/29 11:04:20;;;;;;;5.57;3.72;;;;;9.30;95887.00;;;;8363762;28;20259;-79
2022/12/29 11:13:51;;;;;;;2.92;2.33;;;;;10.00;95889.00;;;;8364553;28;20197;-78
2022/12/29 11:18:24;;;;;;;3.10;2.23;;;;;10.30;95885.00;;;;8362876;28;20197;-78
2022/12/29 11:22:58;;;;;;;4.13;2.03;;;;;10.60;95890.00;;;;8363110;28;20200;-78
2022/12/29 11:27:17;;;;;;;4.43;2.03;;;;;10.80;95879.00;;;;8363938;28;20306;-78
2022/12/29 11:31:47;;;;;;;4.95;2.30;;;;;10.90;95875.00;;;;8363842;28;20414;-78
2022/12/29 11:35:50;;;;;;;4.90;2.10;;;;;10.90;95881.00;;;;8362362;28;20285;-78
2022/12/29 11:40:28;;;;;;;2.85;2.15;;;;;11.00;95872.00;;;;8346311;28;20245;-79
2022/12/29 11:44:39;;;;;;;4.43;2.22;;;;;11.30;95863.00;;;;8363143;28;20284;-79
2022/12/29 11:48:44;;;;;;;7.72;3.30;;;;;11.80;95874.00;;;;8345423;28;20201;-79
2022/12/29 11:53:18;;;;;;;7.32;2.33;;;;;11.90;95868.00;;;;8363808;28;20641;-81
2022/12/29 11:57:56;;;;;;;3.20;1.85;;;;;12.00;95868.00;;;;8364900;28;20200;-87
2022/12/29 12:02:46;;;;;;;4.35;2.55;;;;;12.20;95861.00;;;;8369703;28;20600;-86
2022/12/29 12:07:12;;;;;;;5.68;2.70;;;;;12.30;95865.00;;;;8368649;28;20224;-82
2022/12/29 12:11:36;;;;;;;7.47;2.92;;;;;12.40;95865.00;;;;8369356;28;20448;-80
2022/12/29 12:15:46;;;;;;;3.15;2.45;;;;;12.50;95855.00;;;;8368412;28;20361;-81
2022/12/29 12:20:21;;;;;;;3.58;2.40;;;;;12.50;95860.00;;;;8369715;28;20184;-81
2022/12/29 12:24:54;;;;;;;2.35;2.15;;;;;12.40;95849.00;;;;8365637;28;20270;-74
2022/12/29 12:29:29;;;;;;;6.38;3.55;;;;;12.40;95847.00;;;;8369484;28;20246;-74
2022/12/29 12:34:03;;;;;;;5.32;2.28;;;;;12.40;95838.00;;;;8364413;28;20250;-74
2022/12/29 12:38:42;;;;;;;5.57;1.75;;;;;12.40;95838.00;;;;8365742;28;20201;-74
2022/12/29 12:43:34;;;;;;;4.80;2.33;;;;;12.40;95840.00;;;;8365687;28;20204;-73
2022/12/29 12:48:12;;;;;;;2.40;2.20;;;;;12.40;95832.00;;;;8266359;28;20228;-74
2022/12/29 12:52:27;;;;;;;4.03;2.40;;;;;12.40;95835.00;;;;8265598;28;20195;-72
2022/12/29 12:56:48;;;;;;;2.10;1.88;;;;;12.40;95828.00;;;;8353286;28;20249;-73
2022/12/29 13:01:06;;;;;;;2.80;2.10;;;;;12.50;95830.00;;;;8367352;28;20258;-73
2022/12/29 13:05:39;;;;;;;4.85;2.53;;;;;12.60;95837.00;;;;8367811;28;20189;-73
2022/12/29 13:09:57;;;;;;;6.38;2.42;;;;;12.60;95834.00;;;;8368601;28;20247;-73
2022/12/29 13:14:26;;;;;;;6.43;1.83;;;;;12.60;95836.00;;;;8366535;28;20228;-73
2022/12/29 13:18:59;;;;;;;3.10;2.40;;;;;12.70;95815.00;;;;8368123;28;20572;-72
2022/12/29 13:23:42;;;;;;;124.97;62.78;;;;;12.70;95830.00;;;;8366886;28;20251;-72
2022/12/29 13:28:12;;;;;;;136.95;53.75;;;;;12.80;95835.00;;;;8366423;28;20212;-73
2022/12/29 13:32:48;;;;;;;500.27;188.57;;;;;12.80;95824.00;;;;8368007;28;20212;-73
2022/12/29 13:36:57;;;;;;;155.85;56.20;;;;;12.80;95826.00;;;;8367315;28;20207;-73
2022/12/29 13:41:06;;;;;;;1405.47;482.33;;;;;12.80;95818.00;;;;8365779;28;20200;-73
2022/12/29 13:45:55;;;;;;;185.48;68.60;;;;;12.70;95826.00;;;;8366846;28;20630;-73
2022/12/29 13:50:04;;;;;;;71.13;53.60;;;;;12.60;95815.00;;;;8367363;28;20206;-73
2022/12/29 13:54:19;;;;;;;60.65;55.10;;;;;12.70;95835.00;;;;8366756;28;20318;-73
2022/12/29 13:58:53;;;;;;;7.70;3.65;;;;;12.60;95832.00;;;;8365029;28;20291;-72
2022/12/29 14:03:33;;;;;;;4.30;3.25;;;;;12.60;95828.00;;;;8367426;28;20609;-72
2022/12/29 14:07:39;;;;;;;4.05;3.13;;;;;12.50;95832.00;;;;8364784;28;20220;-72
2022/12/29 14:12:19;;;;;;;7.88;7.22;;;;;12.50;95828.00;;;;8365097;28;20203;-73
2022/12/29 14:17:09;;;;;;;5.28;3.92;;;;;12.40;95826.00;;;;8366221;28;20287;-72
2022/12/29 14:21:27;;;;;;;3.08;2.75;;;;;12.40;95839.00;;;;8364347;28;20199;-73
2022/12/29 14:26:00;;;;;;;3.70;2.55;;;;;12.30;95834.00;;;;8364397;28;20295;-73
2022/12/29 14:30:06;;;;;;;2.83;2.60;;;;;12.30;95846.00;;;;8365292;28;20252;-73
2022/12/29 14:34:44;;;;;;;2.72;2.10;;;;;12.30;95852.00;;;;8346555;28;20310;-73
2022/12/29 14:39:30;;;;;;;3.70;3.30;;;;;12.20;95861.00;;;;8364262;28;20188;-72
2022/12/29 14:43:57;;;;;;;7.85;6.13;;;;;12.20;95862.00;;;;8364939;28;20203;-73
2022/12/29 14:48:34;;;;;;;2.63;2.03;;;;;12.10;95863.00;;;;8360925;28;20224;-73
2022/12/29 14:53:32;;;;;;;4.68;2.50;;;;;12.10;95868.00;;;;8360639;28;20195;-74
2022/12/29 14:57:38;;;;;;;5.43;2.70;;;;;12.00;95875.00;;;;8364467;28;20222;-73
2022/12/29 15:02:16;;;;;;;3.42;2.55;;;;;11.90;95862.00;;;;8362950;28;20220;-73
2022/12/29 15:06:27;;;;;;;4.53;2.30;;;;;11.90;95873.00;;;;8363775;28;20319;-74
2022/12/29 15:10:39;;;;;;;4.13;2.03;;;;;11.90;95877.00;;;;8345967;28;20200;-74
2022/12/29 15:15:18;;;;;;;4.72;2.35;;;;;11.80;95873.00;;;;8364006;28;20197;-74
2022/12/29 15:19:24;;;;;;;5.60;2.40;;;;;11.80;95873.00;;;;8363031;28;20196;-74
2022/12/29 15:23:31;;;;;;;4.38;2.60;;;;;11.70;95880.00;;;;8364920;28;20194;-74
2022/12/29 15:28:07;;;;;;;2.63;2.17;;;;;11.60;95881.00;;;;8363312;28;20227;-74
2022/12/29 15:32:26;;;;;;;5.55;2.40;;;;;11.60;95880.00;;;;8368937;28;20188;-74
2022/12/29 15:36:50;;;;;;;7.57;3.15;;;;;11.50;95875.00;;;;8371143;28;20224;-74
2022/12/29 15:40:55;;;;;;;3.95;2.83;;;;;11.40;95883.00;;;;8364778;28;20636;-73
2022/12/29 15:45:32;;;;;;;4.93;2.35;;;;;11.30;95885.00;;;;8368805;28;20189;-73
2022/12/29 15:49:38;;;;;;;7.20;2.88;;;;;11.20;95891.00;;;;8370299;28;20223;-74
2022/12/29 15:54:15;;;;;;;7.47;2.90;;;;;11.00;95880.00;;;;8369919;28;20232;-74
2022/12/29 15:58:24;;;;;;;3.88;2.35;;;;;11.00;95884.00;;;;8370520;28;20204;-74
2022/12/29 16:02:57;;;;;;;4.13;2.72;;;;;10.80;95873.00;;;;8365539;28;20270;-74
2022/12/29 16:07:02;;;;;;;4.05;2.30;;;;;10.70;95882.00;;;;8369059;28;20223;-74
2022/12/29 16:11:21;;;;;;;2.85;2.20;;;;;10.60;95882.00;;;;8370488;28;20255;-74
2022/12/29 16:15:46;;;;;;;4.97;2.30;;;;;10.50;95878.00;;;;8367678;28;20203;-74
2022/12/29 16:20:28;;;;;;;5.50;2.47;;;;;10.50;95884.00;;;;8369049;28;20201;-74
2022/12/29 16:24:33;;;;;;;7.43;3.22;;;;;10.50;95884.00;;;;8368301;28;20634;-74
2022/12/29 16:29:09;;;;;;;76.28;36.53;;;;;10.60;95887.00;;;;8368802;28;20300;-75
2022/12/29 16:33:48;;;;;;;1504.03;655.40;;;;;10.60;95888.00;;;;8366372;28;20691;-75
2022/12/29 16:38:22;;;;;;;76.10;49.17;;;;;10.60;95874.00;;;;8366904;28;20266;-75
2022/12/29 16:42:36;;;;;;;36.95;31.02;;;;;10.60;95875.00;;;;8365630;28;20330;-74
2022/12/29 16:47:29;;;;;;;12.05;6.75;;;;;10.50;95870.00;;;;8367171;28;20323;-74
2022/12/29 16:52:00;;;;;;;17.02;14.85;;;;;10.70;95876.00;;;;8367505;28;20753;-74
2022/12/29 16:56:45;;;;;;;5.72;4.72;;;;;10.70;95877.00;;;;8367857;28;20257;-74
2022/12/29 17:01:18;;;;;;;15.85;9.63;;;;;10.60;95878.00;;;;8367861;28;20196;-74
2022/12/29 17:05:48;;;;;;;7.63;5.45;;;;;10.50;95895.00;;;;8366882;28;20244;-74
2022/12/29 17:11:53;;;;;;;18.98;13.55;;;;;10.40;95895.00;;;;8368510;28;20684;-73
2022/12/29 17:20:24;;;;;;;13.75;11.88;;;;;10.20;95896.00;;;;8367661;28;20636;-74
2022/12/29 17:25:01;;;;;;;10.48;8.23;;;;;10.20;95899.00;;;;8367404;28;20617;-73
2022/12/29 17:29:39;;;;;;;9.93;6.82;;;;;10.30;95901.00;;;;8367766;28;20217;-73
2022/12/29 17:34:12;;;;;;;5.97;4.72;;;;;10.30;95890.00;;;;8365727;28;20292;-73
2022/12/29 17:38:55;;;;;;;10.40;5.05;;;;;10.40;95887.00;;;;8365757;28;20196;-73
2022/12/29 17:43:26;;;;;;;5.30;3.28;;;;;10.40;95898.00;;;;8367517;28;20196;-73
2022/12/29 17:48:05;;;;;;;6.47;3.00;;;;;10.50;95887.00;;;;8358469;28;20252;-74
2022/12/29 17:52:39;;;;;;;5.72;3.33;;;;;10.60;95891.00;;;;8355413;28;20243;-73
2022/12/29 17:57:19;;;;;;;8.05;3.70;;;;;10.70;95890.00;;;;8365882;28;20206;-73
2022/12/29 18:01:58;;;;;;;4.10;3.05;;;;;10.80;95894.00;;;;8366333;28;20221;-75
2022/12/29 18:06:13;;;;;;;2.50;2.30;;;;;10.90;95883.00;;;;8365908;28;20209;-75
2022/12/29 18:10:30;;;;;;;5.78;2.92;;;;;10.80;95879.00;;;;8366604;28;20221;-75
2022/12/29 18:15:06;;;;;;;4.68;3.75;;;;;10.80;95885.00;;;;8365860;28;20227;-75
2022/12/29 18:19:09;;;;;;;3.90;2.78;;;;;10.70;95879.00;;;;8365943;28;20515;-74
2022/12/29 18:23:19;;;;;;;4.53;3.45;;;;;10.60;95882.00;;;;8365199;28;20208;-75
2022/12/29 18:27:47;;;;;;;3.05;2.63;;;;;10.50;95876.00;;;;8364029;28;20225;-74
2022/12/29 18:32:23;;;;;;;5.13;3.08;;;;;10.30;95888.00;;;;8363983;28;20284;-76
2022/12/29 18:36:58;;;;;;;5.22;2.72;;;;;10.30;95896.00;;;;8364673;28;20550;-76
2022/12/29 18:41:33;;;;;;;6.97;2.85;;;;;10.30;95903.00;;;;8364137;28;20889;-77
2022/12/29 18:45:36;;;;;;;3.25;2.70;;;;;10.30;95913.00;;;;8365389;28;20199;-75
2022/12/29 18:50:18;;;;;;;4.45;2.70;;;;;10.30;95925.00;;;;8363525;28;20224;-76
2022/12/29 18:54:48;;;;;;;3.55;2.83;;;;;10.20;95932.00;;;;8363949;28;20523;-75
2022/12/29 18:59:26;;;;;;;3.10;2.80;;;;;10.20;95940.00;;;;8364346;28;20591;-75
2022/12/29 19:04:05;;;;;;;3.72;2.88;;;;;10.10;95972.00;;;;8365367;28;20542;-75
2022/12/29 19:08:14;;;;;;;3.25;2.28;;;;;10.00;95970.00;;;;8363510;28;20232;-75
2022/12/29 19:12:18;;;;;;;2.50;2.30;;;;;10.00;95964.00;;;;8364576;28;20537;-76
2022/12/29 19:16:54;;;;;;;3.33;2.00;;;;;9.90;95955.00;;;;8361294;28;20239;-75
2022/12/29 19:21:31;;;;;;;2.78;2.22;;;;;9.90;95976.00;;;;8364259;28;20550;-76
2022/12/29 19:26:11;;;;;;;4.05;2.05;;;;;10.00;95961.00;;;;8363589;28;20193;-75
2022/12/29 19:30:48;;;;;;;2.72;2.10;;;;;10.10;95964.00;;;;8360674;28;20252;-75
2022/12/29 19:34:54;;;;;;;2.70;2.42;;;;;10.10;95958.00;;;;8362364;28;20617;-75
2022/12/29 19:39:00;;;;;;;7.13;2.55;;;;;10.20;95966.00;;;;8346311;28;20208;-74
2022/12/29 19:43:37;;;;;;;5.85;3.10;;;;;10.20;95971.00;;;;8363249;28;20227;-74
2022/12/29 19:48:16;;;;;;;3.72;2.92;;;;;10.10;95961.00;;;;8363222;28;20201;-75
2022/12/29 19:52:52;;;;;;;5.82;2.78;;;;;10.10;95964.00;;;;8364247;28;20196;-74
2022/12/29 19:57:31;;;;;;;4.43;2.40;;;;;10.00;95961.00;;;;8362922;28;20192;-75
2022/12/29 20:02:12;;;;;;;4.65;2.50;;;;;10.00;95964.00;;;;8363887;28;20217;-76
2022/12/29 20:06:45;;;;;;;4.50;2.47;;;;;9.90;95964.00;;;;8361832;28;20212;-75
2022/12/29 20:11:19;;;;;;;7.05;3.95;;;;;9.80;95960.00;;;;8364052;28;20224;-75
2022/12/29 20:16:00;;;;;;;10.38;3.17;;;;;9.80;95970.00;;;;8362966;28;20645;-76
2022/12/29 20:20:39;;;;;;;5.35;3.38;;;;;9.70;95962.00;;;;8369303;28;20537;-76
2022/12/29 20:24:45;;;;;;;5.55;2.85;;;;;9.70;95983.00;;;;8368987;28;20267;-76
2022/12/29 20:28:57;;;;;;;5.03;3.05;;;;;9.70;95976.00;;;;8369328;28;20229;-76
2022/12/29 20:33:31;;;;;;;7.20;3.20;;;;;9.70;95978.00;;;;8367984;28;20632;-74
2022/12/29 20:38:07;;;;;;;3.63;2.80;;;;;9.70;95981.00;;;;8365457;28;20212;-76
2022/12/29 20:42:46;;;;;;;5.15;3.30;;;;;9.70;95972.00;;;;8365400;28;20205;-75
2022/12/29 20:47:22;;;;;;;7.88;3.83;;;;;9.70;95964.00;;;;8367228;28;20262;-75
2022/12/29 20:52:02;;;;;;;5.32;3.67;;;;;9.70;95977.00;;;;8368432;28;20229;-75
2022/12/29 20:56:33;;;;;;;4.07;2.92;;;;;9.70;95963.00;;;;8365996;28;20193;-75
2022/12/29 21:01:13;;;;;;;6.18;3.60;;;;;9.60;95965.00;;;;8368079;28;20247;-74
2022/12/29 21:05:52;;;;;;;7.97;4.70;;;;;9.60;95979.00;;;;8367115;28;20209;-75
2022/12/29 21:09:57;;;;;;;9.75;5.35;;;;;9.50;95974.00;;;;8368627;28;20708;-75
2022/12/29 21:14:33;;;;;;;16.73;7.40;;;;;9.40;95963.00;;;;8366341;28;20189;-75
2022/12/29 21:18:46;;;;;;;17.15;6.90;;;;;9.50;95961.00;;;;8368182;28;20590;-75
2022/12/29 21:22:49;;;;;;;9.25;5.18;;;;;9.50;95963.00;;;;8368714;28;20519;-75
2022/12/29 21:26:52;;;;;;;7.10;3.70;;;;;9.50;95964.00;;;;8366767;28;20339;-75
2022/12/29 21:35:44;;;;;;;7.10;3.20;;;;;9.60;95963.00;;;;8366511;28;20193;-74
2022/12/29 21:39:50;;;;;;;4.95;3.70;;;;;9.70;95979.00;;;;8367369;28;20239;-74
2022/12/29 21:49:06;;;;;;;6.57;3.70;;;;;9.80;95964.00;;;;8364641;28;20225;-73
2022/12/29 21:53:43;;;;;;;4.93;3.45;;;;;9.80;95975.00;;;;8365329;28;20249;-74
2022/12/29 22:15:29;;;;;;;3.37;2.73;;;;;9.60;95995.00;;;;8365674;28;20189;-74
2022/12/29 22:19:35;;;;;;;4.55;3.45;;;;;9.60;96000.00;;;;8365179;28;20275;-74
2022/12/29 22:24:09;;;;;;;6.88;2.60;;;;;9.40;96000.00;;;;8365729;28;20189;-74
2022/12/29 22:28:14;;;;;;;2.90;2.67;;;;;9.40;96008.00;;;;8364692;28;20188;-75
2022/12/29 22:32:21;;;;;;;4.45;2.80;;;;;9.40;96018.00;;;;8365976;28;20197;-75
2022/12/29 22:36:27;;;;;;;3.10;2.80;;;;;9.30;96020.00;;;;8364925;28;20239;-76
2022/12/29 22:41:01;;;;;;;5.20;3.10;;;;;9.30;96018.00;;;;8365278;28;20223;-76
2022/12/29 22:45:09;;;;;;;4.70;3.20;;;;;9.20;96031.00;;;;8363517;28;20197;-76
2022/12/29 22:49:12;;;;;;;6.47;3.55;;;;;9.10;96034.00;;;;8365025;28;20220;-77
2022/12/29 22:53:17;;;;;;;7.38;4.00;;;;;9.00;96032.00;;;;8363650;28;20197;-76
2022/12/29 22:57:56;;;;;;;6.90;2.70;;;;;8.90;96031.00;;;;8364653;28;20201;-78
2022/12/29 23:02:00;;;;;;;3.75;1.90;;;;;8.80;96042.00;;;;8362663;28;20323;-78
2022/12/29 23:06:06;;;;;;;3.60;1.50;;;;;8.80;96052.00;;;;8364926;28;20540;-79
2022/12/29 23:10:11;;;;;;;5.00;1.63;;;;;8.70;96059.00;;;;8365130;28;20554;-83
2022/12/29 23:15:08;;;;;;;3.87;1.67;;;;;8.60;96067.00;;;;8363672;28;20200;-84